Tropical Cyclones
[Index]
Main Index Home Page Stock Weather Photos Extreme Storms Discussion Storm News and Storm Chasing Reports Tropical Cyclones / Hurricanes / Typhoons Weather Data and Links Wild Fires / Bushfires Weather Observation Techniques Weather Picture Catalogue Tornado Pictures and Reports Stock Video Footage and DVDs for sale
Season 1964-1965 Tropical Cyclone RITA Track Map
Season 1964-1965 Summaries: [BoM-AU] [JTWC-AU] [JTWC-SIO] [JTWC-SPAC] [JTWC-SH]
<<- Previous TC | JTWC 1964-1965 Season | Next TC ->>

click for intensity scale information  Lat/long Grid: Show Hide

 Date Labels: Show Hide

Joint Typhoon Warning Centre Cyclone Data

Name: RITA
Number: 538 / 6501

01 Nov 1964 18:00 UTC to 11 Nov 1964 12:00 UTC

    date/time    lat    long     hPa   cat  kts
1964-11-01 18    9.0   105.0                  15          
1964-11-02 00    9.0   105.0                  20          
1964-11-02 06    9.0   105.1                  20          
1964-11-02 12    9.2   105.3                  30          
1964-11-02 18    9.4   105.7                  35          
1964-11-03 00    9.7   106.4                  25          
1964-11-03 06    9.9   107.1                  20          
1964-11-03 12    9.9   107.6                  20          
1964-11-03 18   10.0   108.2                  20          
1964-11-04 00   10.4   109.0                  30          
1964-11-04 06   10.7   109.6                  30          
1964-11-04 12   10.9   109.9                  30          
1964-11-04 18   11.2   110.4                  30          
1964-11-05 00   11.6   111.0                  25          
1964-11-05 06   12.0   111.5                  25          
1964-11-05 12   12.0   111.8                  20          
1964-11-05 18   12.2   112.2                  20          
1964-11-06 00   12.7   112.7                  20          
1964-11-06 06   13.1   113.1                  15          
1964-11-06 12   13.5   113.6                  15          
1964-11-06 18   13.9   113.9                  15          
1964-11-07 00   14.3   114.2                  15          
1964-11-07 06   14.7   114.4                  15          
1964-11-07 12   15.0   114.4                  20          
1964-11-07 18   15.0   114.6                  20          
1964-11-08 00   15.0   115.2                  20          
1964-11-08 06   15.0   115.6                  20          
1964-11-08 12   15.0   115.8                  20          
1964-11-08 18   15.0   116.1                  20          
1964-11-09 00   15.0   116.4                  20          
1964-11-09 06   15.0   116.7                  20          
1964-11-09 12   15.0   117.0                  20          
1964-11-09 18   15.0   117.3                  20          
1964-11-10 00   15.0   117.3                  20          
1964-11-10 06   15.0   117.3                  25          
1964-11-10 12   15.0   117.5                  25          
1964-11-10 18   15.0   117.7                  25          
1964-11-11 00   15.0   118.0                  25          
1964-11-11 06   15.0   118.3                  25          
1964-11-11 12   15.0   118.3                  25          
Winds are 1-min average.

Tropical cyclone tracks developed by Michael Bath using data from the Joint Typhoon Warning Centre Best Tracks and Google Maps.


[Australian Severe Weather index] [Copyright Notice] [Email Contacts] [Search This Site] [Privacy Policy]
Document: tropical_cyclone_rita.htm Updated: 18 September 2016